Time;durP1;ratioP1;P1;durP2;ratioP2;P2;SDS_P1;SDS_P2;PMS_P1;PMS_P2;Temp;Humidity;BMP_temperature;BMP_pressure;BME280_temperature;BME280_humidity;BME280_pressure;Samples;Min_cycle;Max_cycle;Signal;HPM_P1;HPM_P2
2023/03/06 00:00:12;;;;;;;0.10;0.10;;;;;;;-2.30;77.26;97855.22;5015605;28;20049;-76
2023/03/06 00:02:39;;;;;;;0.17;0.17;;;;;;;-2.32;77.32;97860.00;5013923;28;20073;-76
2023/03/06 00:05:06;;;;;;;0.20;0.20;;;;;;;-2.44;77.49;97853.88;5023344;28;20057;-76
2023/03/06 00:07:32;;;;;;;0.10;0.10;;;;;;;-2.43;77.63;97853.66;5011448;28;20077;-75
2023/03/06 00:09:59;;;;;;;0.10;0.10;;;;;;;-2.47;77.86;97855.19;5014870;28;20685;-75
2023/03/06 00:12:26;;;;;;;0.13;0.13;;;;;;;-2.48;77.93;97856.22;5019511;28;20049;-75
2023/03/06 00:14:52;;;;;;;0.15;0.15;;;;;;;-2.43;78.04;97858.16;5013307;28;20182;-74
2023/03/06 00:17:18;;;;;;;0.10;0.10;;;;;;;-2.46;77.78;97850.63;5012731;28;20231;-75
2023/03/06 00:19:46;;;;;;;0.20;0.20;;;;;;;-2.40;77.61;97856.88;4989578;28;20527;-75
2023/03/06 00:22:13;;;;;;;0.10;0.10;;;;;;;-2.39;77.48;97856.66;5015785;28;20092;-75
2023/03/06 00:24:41;;;;;;;0.20;0.20;;;;;;;-2.47;77.53;97857.84;5013202;28;20148;-74
2023/03/06 00:27:07;;;;;;;0.10;0.10;;;;;;;-2.47;77.45;97860.53;5007229;28;20263;-74
2023/03/06 00:29:33;;;;;;;0.10;0.10;;;;;;;-2.45;77.56;97855.75;4998752;28;20525;-75
2023/03/06 00:31:59;;;;;;;0.10;0.10;;;;;;;-2.51;77.55;97853.22;5007471;28;20053;-75
2023/03/06 00:34:26;;;;;;;0.10;0.10;;;;;;;-2.57;77.82;97854.97;5011858;28;20046;-75
2023/03/06 00:36:53;;;;;;;0.10;0.10;;;;;;;-2.53;78.04;97866.00;4995988;28;20046;-75
2023/03/06 00:39:19;;;;;;;0.10;0.10;;;;;;;-2.53;78.00;97858.00;5015239;28;20042;-74
2023/03/06 00:41:46;;;;;;;0.10;0.10;;;;;;;-2.65;78.29;97858.81;5000339;28;20579;-74
2023/03/06 00:44:12;;;;;;;0.10;0.10;;;;;;;-2.73;78.43;97857.31;5015392;28;20063;-74
2023/03/06 00:46:38;;;;;;;0.10;0.10;;;;;;;-2.73;78.68;97875.25;5012725;28;20080;-75
2023/03/06 00:49:04;;;;;;;0.10;0.10;;;;;;;-2.80;79.02;97864.69;5022748;28;20062;-74
2023/03/06 00:51:30;;;;;;;0.10;0.10;;;;;;;-2.81;79.02;97859.56;5013009;28;20057;-74
2023/03/06 00:53:58;;;;;;;0.10;0.10;;;;;;;-2.84;79.22;97860.81;5022297;28;20058;-74
2023/03/06 00:56:24;;;;;;;0.10;0.10;;;;;;;-2.93;79.32;97851.56;4995522;28;20046;-75
2023/03/06 00:58:50;;;;;;;0.10;0.10;;;;;;;-2.96;79.62;97854.69;5011004;28;20087;-74
2023/03/06 01:01:17;;;;;;;0.10;0.10;;;;;;;-2.99;79.84;97854.09;5017246;28;20567;-74
2023/03/06 01:03:43;;;;;;;0.10;0.10;;;;;;;-3.00;79.97;97857.81;5015365;28;20077;-74
2023/03/06 01:06:09;;;;;;;0.10;0.10;;;;;;;-3.01;79.91;97856.19;5011345;28;20521;-74
2023/03/06 01:08:35;;;;;;;0.10;0.10;;;;;;;-3.06;80.03;97856.09;5012374;28;20060;-74
2023/03/06 01:11:03;;;;;;;0.10;0.10;;;;;;;-3.05;79.89;97857.72;5020738;28;20041;-74
2023/03/06 01:13:29;;;;;;;0.10;0.10;;;;;;;-2.96;79.72;97855.50;5004169;28;20058;-75
2023/03/06 01:16:05;;;;;;;0.10;0.10;;;;;;;-2.91;79.83;97855.59;5009744;28;20057;-74
2023/03/06 01:18:31;;;;;;;0.13;0.13;;;;;;;-2.87;79.28;97855.94;5015819;28;20128;-74
2023/03/06 01:20:57;;;;;;;0.10;0.10;;;;;;;-2.95;79.14;97857.13;5018720;28;20071;-75
2023/03/06 01:23:23;;;;;;;0.10;0.10;;;;;;;-2.88;79.30;97867.69;5019583;28;20045;-76
2023/03/06 01:25:49;;;;;;;0.10;0.10;;;;;;;-2.85;79.25;97859.19;5011040;28;20100;-76
2023/03/06 01:28:19;;;;;;;0.10;0.10;;;;;;;-2.82;78.95;97858.72;5020342;28;20757;-76
2023/03/06 01:30:45;;;;;;;0.20;0.20;;;;;;;-2.82;78.89;97858.72;5020911;28;20073;-76
2023/03/06 01:33:11;;;;;;;0.10;0.10;;;;;;;-2.85;78.83;97859.19;5009217;28;20136;-76
2023/03/06 01:35:38;;;;;;;0.10;0.10;;;;;;;-2.88;78.76;97868.53;5018306;28;20538;-76
2023/03/06 01:38:05;;;;;;;0.20;0.20;;;;;;;-2.90;78.87;97862.56;5006258;28;20469;-76
2023/03/06 01:40:31;;;;;;;0.10;0.10;;;;;;;-2.93;78.77;97855.03;5010599;28;20103;-76
2023/03/06 01:42:58;;;;;;;0.10;0.10;;;;;;;-3.16;78.69;97827.28;5018043;28;20130;-76
2023/03/06 01:46:01;;;;;;;0.10;0.10;;;;;;;-2.84;78.50;97860.81;4993173;28;20058;-77
2023/03/06 01:48:29;;;;;;;0.10;0.10;;;;;;;-2.87;78.37;97866.66;5013486;28;20647;-74
2023/03/06 01:50:55;;;;;;;;;;;;;;;-2.87;78.47;97858.63;5010054;28;20057;-75
2023/03/06 01:53:21;;;;;;;0.10;0.10;;;;;;;-3.02;78.22;97854.56;5014658;28;20351;-75
2023/03/06 01:55:48;;;;;;;0.10;0.10;;;;;;;-2.94;78.46;97864.09;5002880;28;20073;-75
2023/03/06 01:58:17;;;;;;;0.10;0.10;;;;;;;-2.90;78.30;97872.47;5006348;28;20069;-75
2023/03/06 02:00:43;;;;;;;0.10;0.10;;;;;;;-2.94;78.45;97874.00;5007676;28;20149;-75
2023/03/06 02:03:12;;;;;;;0.10;0.10;;;;;;;-2.97;78.54;97877.13;4996258;28;20037;-75
2023/03/06 02:05:42;;;;;;;0.10;0.10;;;;;;;-3.00;78.57;97865.84;5011193;28;20559;-75
2023/03/06 02:08:10;;;;;;;0.10;0.10;;;;;;;-3.01;78.69;97868.78;4999193;28;20155;-74
2023/03/06 02:10:36;;;;;;;0.10;0.10;;;;;;;-3.06;78.83;97880.16;4990369;28;20323;-74
2023/03/06 02:13:03;;;;;;;0.10;0.10;;;;;;;-3.12;79.24;97875.75;4994990;28;20101;-75
2023/03/06 02:15:30;;;;;;;0.10;0.10;;;;;;;-3.10;79.20;97875.50;4995723;28;20477;-74
2023/03/06 02:17:59;;;;;;;0.20;0.20;;;;;;;-3.09;79.40;97882.47;5013010;28;20049;-74
2023/03/06 02:20:33;;;;;;;0.10;0.10;;;;;;;-3.08;79.26;97873.41;5014220;28;20606;-76
2023/03/06 02:23:04;;;;;;;0.10;0.10;;;;;;;-3.09;79.13;97869.09;4992905;28;20549;-75
2023/03/06 02:25:38;;;;;;;0.20;0.20;;;;;;;-3.10;79.33;97868.31;5011487;28;20054;-75
2023/03/06 02:28:07;;;;;;;0.10;0.10;;;;;;;-3.10;79.51;97872.81;4995885;28;20401;-75
2023/03/06 02:30:34;;;;;;;0.10;0.10;;;;;;;-3.08;79.45;97881.44;5009452;28;20052;-75
2023/03/06 02:33:01;;;;;;;0.10;0.10;;;;;;;-3.09;79.51;97874.44;5007476;28;20509;-76
2023/03/06 02:35:29;;;;;;;0.10;0.10;;;;;;;-3.04;79.20;97879.94;5018769;28;20041;-75
2023/03/06 02:37:56;;;;;;;0.10;0.10;;;;;;;-3.03;79.34;97874.34;5007607;28;20054;-74
2023/03/06 02:40:23;;;;;;;0.10;0.10;;;;;;;-2.99;79.33;97872.03;5006986;28;20087;-73
2023/03/06 02:42:55;;;;;;;0.10;0.10;;;;;;;-2.93;79.50;97873.75;5012778;28;20148;-73
2023/03/06 02:45:27;;;;;;;0.10;0.10;;;;;;;-2.96;79.03;97855.50;5015643;28;20429;-73
2023/03/06 02:47:54;;;;;;;0.20;0.20;;;;;;;-2.90;79.04;97867.13;4998423;28;20045;-73
2023/03/06 02:50:20;;;;;;;0.10;0.10;;;;;;;-2.95;79.12;97870.50;5008876;28;20077;-73
2023/03/06 02:52:47;;;;;;;0.10;0.10;;;;;;;-2.99;78.89;97867.47;4996248;28;20050;-74
2023/03/06 02:55:13;;;;;;;0.10;0.10;;;;;;;-2.99;79.13;97872.81;5015865;28;20045;-73
2023/03/06 02:57:39;;;;;;;0.10;0.10;;;;;;;-3.02;79.21;97875.97;5011496;28;20045;-73
2023/03/06 03:00:09;;;;;;;0.10;0.10;;;;;;;-3.03;79.36;97873.53;4986371;28;20499;-73
2023/03/06 03:02:36;;;;;;;0.17;0.17;;;;;;;-3.05;79.45;97868.41;4979590;28;20172;-73
2023/03/06 03:05:02;;;;;;;0.17;0.17;;;;;;;-3.03;79.37;97873.53;5014597;28;20613;-73
2023/03/06 03:07:29;;;;;;;0.10;0.10;;;;;;;-3.04;79.43;97878.06;5007828;28;20041;-74
2023/03/06 03:09:56;;;;;;;0.10;0.10;;;;;;;-3.06;79.49;97864.13;5019797;28;20058;-75
2023/03/06 03:12:23;;;;;;;0.10;0.10;;;;;;;-2.92;79.44;97870.03;5013665;28;20580;-75
2023/03/06 03:14:49;;;;;;;0.10;0.10;;;;;;;-2.93;79.30;97870.28;5016794;28;20531;-75
2023/03/06 03:17:16;;;;;;;0.10;0.10;;;;;;;-2.91;79.32;97876.19;5016595;28;20045;-75
2023/03/06 03:19:45;;;;;;;0.10;0.10;;;;;;;-2.89;79.29;97872.25;5014513;28;20513;-75
2023/03/06 03:22:11;;;;;;;0.10;0.10;;;;;;;-2.82;79.15;97874.78;5012924;28;20548;-75
2023/03/06 03:24:38;;;;;;;0.10;0.10;;;;;;;-2.82;79.08;97879.31;5024756;28;20130;-75
2023/03/06 03:27:05;;;;;;;0.10;0.10;;;;;;;-2.81;79.15;97881.78;5020809;28;20053;-76
2023/03/06 03:29:31;;;;;;;0.10;0.10;;;;;;;-2.74;79.01;97882.47;4997787;28;20050;-74
2023/03/06 03:31:57;;;;;;;0.10;0.10;;;;;;;-2.68;78.71;97874.53;5007367;28;20049;-74
2023/03/06 03:34:27;;;;;;;0.20;0.20;;;;;;;-2.69;78.58;97880.94;5023696;28;20056;-74
2023/03/06 03:36:54;;;;;;;0.10;0.10;;;;;;;-2.68;78.84;97877.19;4980294;28;20050;-75
2023/03/06 03:39:20;;;;;;;0.20;0.20;;;;;;;-2.78;79.23;97875.94;5013825;28;20137;-75
2023/03/06 03:41:46;;;;;;;0.10;0.10;;;;;;;-2.82;79.63;97884.69;5018826;28;20052;-74
2023/03/06 03:44:13;;;;;;;0.10;0.10;;;;;;;-2.89;80.21;97885.63;5016847;28;20060;-75
2023/03/06 03:46:39;;;;;;;0.10;0.10;;;;;;;-2.99;80.47;97872.81;5014615;28;20164;-74
2023/03/06 03:49:10;;;;;;;0.10;0.10;;;;;;;-2.95;80.68;97883.88;5019490;28;20053;-75
2023/03/06 03:51:38;;;;;;;0.17;0.17;;;;;;;-2.93;81.04;97886.31;5016537;28;20052;-75
2023/03/06 03:54:05;;;;;;;0.10;0.10;;;;;;;-2.93;80.95;97887.13;4996774;28;20076;-74
2023/03/06 03:56:36;;;;;;;0.10;0.10;;;;;;;-2.83;80.96;97886.53;4983260;28;20136;-75
2023/03/06 03:59:08;;;;;;;0.20;0.20;;;;;;;-2.73;80.69;97885.97;5011663;28;20178;-74
2023/03/06 04:01:43;;;;;;;0.10;0.10;;;;;;;-2.77;80.65;97880.25;5014995;28;20513;-74
2023/03/06 04:04:09;;;;;;;0.10;0.10;;;;;;;-2.82;80.57;97877.44;5016059;28;20122;-73
2023/03/06 04:06:38;;;;;;;0.10;0.10;;;;;;;-2.87;80.69;97878.19;5018173;28;20072;-74
2023/03/06 04:09:04;;;;;;;0.10;0.10;;;;;;;-2.99;80.86;97888.06;5016739;28;20144;-73
2023/03/06 04:11:32;;;;;;;0.20;0.20;;;;;;;-3.26;81.08;97847.63;5013523;28;20096;-74
2023/03/06 04:13:58;;;;;;;0.10;0.10;;;;;;;-3.01;81.22;97890.97;5015644;28;20057;-74
2023/03/06 04:16:25;;;;;;;0.10;0.10;;;;;;;-3.03;81.14;97892.25;5020973;28;20049;-74
2023/03/06 04:18:51;;;;;;;0.10;0.10;;;;;;;-3.09;80.79;97890.50;4992071;28;20445;-74
2023/03/06 04:21:18;;;;;;;;;;;;;;;-3.16;81.09;97886.09;5000538;28;20053;-73
2023/03/06 04:23:46;;;;;;;0.10;0.10;;;;;;;-3.19;80.92;97886.56;5024659;28;19929;-73
2023/03/06 04:26:13;;;;;;;0.10;0.10;;;;;;;-3.21;80.83;97885.94;5011906;28;20076;-75
2023/03/06 04:28:39;;;;;;;0.10;0.10;;;;;;;-3.22;80.91;97887.00;5000004;28;20076;-74
2023/03/06 04:31:06;;;;;;;0.20;0.20;;;;;;;-3.15;80.92;97885.03;5011790;28;20083;-75
2023/03/06 04:33:33;;;;;;;0.20;0.20;;;;;;;-3.17;80.69;97887.13;5013633;28;20060;-74
2023/03/06 04:35:59;;;;;;;0.20;0.20;;;;;;;-3.15;80.99;97884.22;5001426;28;20053;-75
2023/03/06 04:38:29;;;;;;;0.10;0.10;;;;;;;-3.07;80.70;97888.41;5011955;28;20050;-74
2023/03/06 04:40:57;;;;;;;0.10;0.10;;;;;;;-3.07;80.74;97883.88;5011472;28;20061;-74
2023/03/06 04:43:23;;;;;;;0.10;0.10;;;;;;;-3.10;80.63;97879.00;4999076;28;20042;-74
2023/03/06 04:45:49;;;;;;;0.20;0.20;;;;;;;-3.10;80.79;97880.84;5001416;28;20073;-74
2023/03/06 04:48:17;;;;;;;0.10;0.10;;;;;;;-3.06;80.71;97890.03;5012756;28;20555;-75
2023/03/06 04:50:43;;;;;;;0.10;0.10;;;;;;;-3.05;80.73;97886.31;5014795;28;20080;-74
2023/03/06 04:53:09;;;;;;;0.10;0.10;;;;;;;-3.02;80.86;97891.22;5012891;28;20060;-74
2023/03/06 04:55:36;;;;;;;0.10;0.10;;;;;;;-2.99;80.85;97882.72;5009025;28;20045;-74
2023/03/06 04:58:03;;;;;;;0.20;0.20;;;;;;;-2.94;80.82;97892.72;5015145;28;20519;-74
2023/03/06 05:00:30;;;;;;;0.20;0.20;;;;;;;-2.98;81.17;97887.00;5015338;28;20054;-74
2023/03/06 05:02:58;;;;;;;0.10;0.10;;;;;;;-2.87;80.92;97891.56;5019284;28;20508;-74
2023/03/06 05:05:25;;;;;;;0.10;0.10;;;;;;;-2.85;80.89;97900.16;5017382;28;20057;-75
2023/03/06 05:07:51;;;;;;;0.20;0.20;;;;;;;-2.84;80.88;97895.59;4990164;28;20038;-73
2023/03/06 05:10:18;;;;;;;0.20;0.20;;;;;;;-2.98;81.06;97879.00;5001095;28;20056;-72
2023/03/06 05:12:45;;;;;;;0.10;0.10;;;;;;;-2.88;81.23;97889.09;5001286;28;20135;-74
2023/03/06 05:15:15;;;;;;;0.10;0.10;;;;;;;-2.85;81.40;97900.16;5016678;28;20800;-73
2023/03/06 05:17:41;;;;;;;0.20;0.20;;;;;;;-2.86;81.26;97892.34;5012652;28;20065;-73
2023/03/06 05:20:10;;;;;;;0.10;0.10;;;;;;;-2.90;81.46;97897.34;5010928;28;20096;-74
2023/03/06 05:22:36;;;;;;;0.10;0.10;;;;;;;-2.88;81.40;97900.63;5019440;28;20456;-73
2023/03/06 05:25:03;;;;;;;0.10;0.10;;;;;;;-2.79;81.20;97898.41;5012215;28;20451;-73
2023/03/06 05:27:30;;;;;;;0.30;0.30;;;;;;;-2.70;81.06;97904.22;4998378;28;20421;-73
2023/03/06 05:29:56;;;;;;;0.10;0.10;;;;;;;-2.62;80.86;97887.78;5014524;28;20150;-74
2023/03/06 05:32:24;;;;;;;0.10;0.10;;;;;;;-2.39;80.23;97899.50;5018857;28;20045;-74
2023/03/06 05:34:51;;;;;;;0.20;0.20;;;;;;;-2.29;79.15;97897.00;5018351;28;20103;-74
2023/03/06 05:37:17;;;;;;;0.20;0.20;;;;;;;-2.21;79.02;97900.38;5012818;28;20081;-75
2023/03/06 05:39:43;;;;;;;0.20;0.20;;;;;;;-2.08;78.50;97905.47;4985466;28;20426;-74
2023/03/06 05:42:09;;;;;;;0.20;0.20;;;;;;;-1.97;77.97;97908.31;5004948;28;20543;-74
2023/03/06 05:44:36;;;;;;;0.10;0.10;;;;;;;-1.79;77.49;97905.47;5000041;28;20081;-74
2023/03/06 05:47:03;;;;;;;0.20;0.20;;;;;;;-1.71;76.54;97904.25;5003589;28;20324;-74
2023/03/06 05:49:33;;;;;;;0.20;0.20;;;;;;;-1.55;76.03;97913.34;4999466;28;20057;-74
2023/03/06 05:51:59;;;;;;;0.20;0.20;;;;;;;-1.38;74.44;97908.03;4994053;28;20415;-74
2023/03/06 05:54:25;;;;;;;0.10;0.10;;;;;;;-1.51;73.85;97902.97;5006267;28;20559;-74
2023/03/06 05:56:51;;;;;;;0.20;0.20;;;;;;;-1.40;74.41;97915.50;4999514;28;20282;-74
2023/03/06 05:59:18;;;;;;;0.32;0.30;;;;;;;-1.41;73.99;97908.50;5011970;28;20106;-74
2023/03/06 06:01:44;;;;;;;0.10;0.10;;;;;;;-1.55;73.75;97915.25;5023684;28;20049;-74
2023/03/06 06:04:10;;;;;;;0.10;0.10;;;;;;;-1.73;74.01;97917.88;5005854;28;20166;-74
2023/03/06 06:06:37;;;;;;;0.10;0.10;;;;;;;-1.82;75.26;97929.22;4995011;28;20050;-74
2023/03/06 06:09:03;;;;;;;0.20;0.20;;;;;;;-1.97;76.36;97919.84;5013128;28;20041;-74
2023/03/06 06:11:30;;;;;;;0.20;0.20;;;;;;;-2.04;76.36;97920.00;4993586;28;21457;-74
2023/03/06 06:13:56;;;;;;;0.20;0.20;;;;;;;-2.06;77.20;97918.59;5001428;28;20068;-74
2023/03/06 06:16:22;;;;;;;0.20;0.20;;;;;;;-1.96;77.37;97913.44;5020444;28;20144;-74
2023/03/06 06:18:48;;;;;;;0.20;0.20;;;;;;;-1.81;76.03;97918.25;5010508;28;20049;-74
2023/03/06 06:21:15;;;;;;;0.20;0.20;;;;;;;-1.67;75.96;97913.44;5002042;28;20081;-74
2023/03/06 06:23:42;;;;;;;0.20;0.20;;;;;;;-1.66;74.40;97919.59;5019955;28;20140;-73
2023/03/06 06:26:09;;;;;;;0.20;0.20;;;;;;;-1.65;74.50;97916.69;4995847;28;20049;-74
2023/03/06 06:28:35;;;;;;;0.20;0.20;;;;;;;-1.47;73.82;97923.69;5000950;28;20148;-75
2023/03/06 06:31:08;;;;;;;0.20;0.20;;;;;;;-1.32;73.46;97922.34;5009965;28;20540;-73
2023/03/06 06:33:34;;;;;;;0.20;0.20;;;;;;;-1.37;72.65;97922.22;5016445;28;20045;-73
2023/03/06 06:36:00;;;;;;;0.20;0.20;;;;;;;-1.34;72.68;97924.41;5015453;28;20172;-73
2023/03/06 06:38:26;;;;;;;0.20;0.20;;;;;;;-1.48;71.22;97929.28;4987868;28;20204;-73
2023/03/06 06:40:54;;;;;;;0.20;0.20;;;;;;;-1.75;72.13;97928.03;5014336;28;20049;-73
2023/03/06 06:43:19;;;;;;;;;;;;;;;-1.73;72.77;97930.47;5021299;28;20051;-73
2023/03/06 06:45:46;;;;;;;0.20;0.20;;;;;;;-1.56;72.58;97925.13;5016223;28;19925;-74
2023/03/06 06:48:13;;;;;;;0.20;0.20;;;;;;;-1.60;71.40;97926.69;5014678;28;20073;-74
2023/03/06 06:50:39;;;;;;;0.20;0.20;;;;;;;-1.71;72.01;97934.53;5016753;28;20062;-73
2023/03/06 06:53:05;;;;;;;0.20;0.20;;;;;;;-1.67;71.74;97931.38;5000496;28;20050;-73
2023/03/06 06:55:32;;;;;;;0.20;0.20;;;;;;;-1.63;71.34;97927.16;5018399;28;20041;-73
2023/03/06 06:57:59;;;;;;;0.20;0.20;;;;;;;-1.53;71.62;97931.91;5022253;28;20053;-74
2023/03/06 07:00:26;;;;;;;0.20;0.20;;;;;;;-1.51;71.39;97927.91;5024958;28;20050;-73
2023/03/06 07:02:52;;;;;;;1.20;0.30;;;;;;;-1.49;70.90;97925.00;5016896;28;20045;-73
2023/03/06 07:05:19;;;;;;;0.20;0.20;;;;;;;-1.50;70.80;97924.16;5022088;28;20069;-75
2023/03/06 07:07:45;;;;;;;0.20;0.20;;;;;;;-1.51;70.36;97935.16;5037794;28;20127;-74
2023/03/06 07:10:14;;;;;;;0.20;0.20;;;;;;;-1.55;71.21;97942.06;5021981;28;20045;-75
2023/03/06 07:12:41;;;;;;;0.30;0.30;;;;;;;-1.45;70.83;97937.69;5024302;28;20095;-75
2023/03/06 07:15:11;;;;;;;0.30;0.30;;;;;;;-1.39;70.95;97932.38;5022548;28;20086;-75
2023/03/06 07:17:37;;;;;;;0.20;0.20;;;;;;;-1.27;70.45;97933.13;5024075;28;20077;-73
2023/03/06 07:20:05;;;;;;;0.30;0.30;;;;;;;-1.05;70.29;97943.13;5025161;28;20049;-73
2023/03/06 07:22:32;;;;;;;0.20;0.20;;;;;;;-0.95;69.91;97929.06;5006690;28;20144;-75
2023/03/06 07:24:58;;;;;;;0.20;0.20;;;;;;;-0.92;69.02;97926.69;5019983;28;20435;-75
2023/03/06 07:27:25;;;;;;;0.20;0.20;;;;;;;-0.83;69.39;97935.13;5024785;28;20053;-75
2023/03/06 07:29:52;;;;;;;0.20;0.20;;;;;;;-0.65;68.76;97931.38;5023735;28;20092;-74
2023/03/06 07:32:20;;;;;;;;;;;;;;;-0.68;67.00;97942.63;5005591;28;20133;-75
2023/03/06 07:34:46;;;;;;;0.20;0.20;;;;;;;-0.80;67.41;97945.38;5014076;28;20040;-75
2023/03/06 07:37:12;;;;;;;0.30;0.30;;;;;;;-0.75;67.86;97939.28;5019032;28;20076;-77
2023/03/06 07:39:38;;;;;;;0.20;0.20;;;;;;;-0.72;67.95;97944.97;5021384;28;20046;-75
2023/03/06 07:42:06;;;;;;;0.20;0.20;;;;;;;-0.75;67.60;97934.75;5010633;28;20049;-75
2023/03/06 07:44:35;;;;;;;0.10;0.10;;;;;;;-0.72;66.14;97953.03;5023697;28;20062;-75
2023/03/06 07:47:01;;;;;;;0.20;0.20;;;;;;;-1.01;66.26;97938.91;5006708;28;20065;-75
2023/03/06 07:49:29;;;;;;;0.20;0.20;;;;;;;-1.07;66.78;97958.66;5016028;28;20590;-75
2023/03/06 07:51:56;;;;;;;0.20;0.20;;;;;;;-0.99;66.80;97952.91;5021547;28;20045;-75
2023/03/06 07:54:22;;;;;;;0.20;0.20;;;;;;;-0.79;65.83;97960.44;5020186;28;20612;-75
2023/03/06 07:56:50;;;;;;;0.28;0.28;;;;;;;-0.77;65.44;97949.44;5023550;28;20045;-75
2023/03/06 07:59:16;;;;;;;0.20;0.20;;;;;;;-0.79;65.30;97951.56;5025772;28;20056;-73
2023/03/06 08:01:42;;;;;;;0.20;0.20;;;;;;;-0.90;66.38;97958.66;5021707;28;20051;-75
2023/03/06 08:04:08;;;;;;;0.20;0.20;;;;;;;-0.82;65.97;97966.28;5018720;28;20069;-76
2023/03/06 08:06:36;;;;;;;0.10;0.10;;;;;;;-0.93;64.95;97961.84;5027442;28;20053;-76
2023/03/06 08:09:03;;;;;;;0.20;0.20;;;;;;;-0.95;65.02;97961.25;5025274;28;20041;-75
2023/03/06 08:11:30;;;;;;;0.10;0.10;;;;;;;-1.10;64.68;97972.56;5017064;28;20457;-75
2023/03/06 08:13:57;;;;;;;0.30;0.30;;;;;;;-1.27;65.70;97956.44;5018443;28;20156;-74
2023/03/06 08:16:25;;;;;;;0.22;0.22;;;;;;;-1.19;65.22;97958.75;5022666;28;20057;-75
2023/03/06 08:18:51;;;;;;;0.20;0.20;;;;;;;-1.30;65.74;97963.13;5025071;28;20528;-76
2023/03/06 08:21:19;;;;;;;0.20;0.20;;;;;;;-1.25;66.00;97957.84;5018307;28;20041;-75
2023/03/06 08:23:47;;;;;;;0.20;0.20;;;;;;;-0.97;66.29;97968.72;5024349;28;20539;-75
2023/03/06 08:26:15;;;;;;;0.20;0.20;;;;;;;-0.72;64.57;97960.25;5019946;28;20076;-75
2023/03/06 08:28:41;;;;;;;0.20;0.20;;;;;;;-0.80;64.52;97961.47;5026148;28;20045;-75
2023/03/06 08:31:10;;;;;;;0.20;0.20;;;;;;;-0.71;63.80;97972.63;5024376;28;20060;-76
2023/03/06 08:33:36;;;;;;;0.20;0.20;;;;;;;-0.75;63.05;97969.63;5024988;28;20071;-76
2023/03/06 08:36:02;;;;;;;0.20;0.20;;;;;;;-0.79;62.89;97962.31;5060004;28;20085;-76
2023/03/06 08:38:28;;;;;;;0.10;0.10;;;;;;;-0.95;62.89;97971.97;5051361;28;20115;-76
2023/03/06 08:40:56;;;;;;;0.20;0.20;;;;;;;-0.95;63.61;97971.97;5017731;28;20053;-75
2023/03/06 08:43:22;;;;;;;;;;;;;;;-0.78;63.17;97975.50;5023508;28;20559;-75
2023/03/06 08:45:51;;;;;;;0.30;0.30;;;;;;;-0.60;62.58;97976.28;5022590;28;19928;-76
2023/03/06 08:48:17;;;;;;;0.28;0.28;;;;;;;-0.35;60.30;97969.63;5021528;28;20045;-75
2023/03/06 08:50:43;;;;;;;0.30;0.30;;;;;;;-0.36;60.13;97970.69;5020418;28;20103;-75
2023/03/06 08:53:09;;;;;;;0.20;0.20;;;;;;;-0.23;60.06;97970.34;5021419;28;20037;-75
2023/03/06 08:55:36;;;;;;;0.20;0.20;;;;;;;-0.24;59.47;97966.03;5017379;28;20525;-75
2023/03/06 08:58:04;;;;;;;0.20;0.20;;;;;;;-0.06;59.06;97974.84;5024160;28;20092;-76
2023/03/06 09:00:30;;;;;;;;;;;;;;;0.02;59.36;97970.91;5025151;28;20136;-75
2023/03/06 09:02:56;;;;;;;0.20;0.20;;;;;;;0.25;58.53;97975.19;5024739;28;20031;-76
2023/03/06 09:05:22;;;;;;;0.20;0.20;;;;;;;0.27;58.89;97965.84;5022131;28;20174;-75
2023/03/06 09:07:48;;;;;;;0.20;0.20;;;;;;;0.21;58.16;97976.78;4994816;28;20061;-76
2023/03/06 09:10:16;;;;;;;0.20;0.20;;;;;;;0.09;58.36;97966.16;5024086;28;20111;-75
2023/03/06 09:12:43;;;;;;;0.30;0.30;;;;;;;-0.20;58.87;97939.47;5026299;28;20053;-75
2023/03/06 09:15:12;;;;;;;0.20;0.20;;;;;;;0.15;58.52;97981.28;5023096;28;20497;-75
2023/03/06 09:17:38;;;;;;;0.20;0.20;;;;;;;-0.02;59.16;97975.97;5018022;28;20064;-75
2023/03/06 09:20:07;;;;;;;0.20;0.20;;;;;;;0.09;59.38;97980.41;5005179;28;20080;-75
2023/03/06 09:22:33;;;;;;;0.20;0.20;;;;;;;0.14;59.06;97979.66;5013826;28;20054;-76
2023/03/06 09:24:59;;;;;;;0.20;0.20;;;;;;;0.09;59.07;97975.03;5021551;28;20076;-75
2023/03/06 09:27:29;;;;;;;0.20;0.20;;;;;;;-0.09;59.54;97968.09;5022341;28;20067;-75
2023/03/06 09:29:55;;;;;;;0.25;0.20;;;;;;;0.06;60.30;97982.78;5025742;28;20055;-75
2023/03/06 09:32:23;;;;;;;0.20;0.20;;;;;;;-0.10;60.77;97979.09;5023241;28;20049;-76
2023/03/06 09:34:49;;;;;;;0.20;0.20;;;;;;;0.14;60.77;97985.81;5017661;28;20564;-75
2023/03/06 09:37:15;;;;;;;0.20;0.20;;;;;;;0.33;60.77;97987.38;5018918;28;20060;-75
2023/03/06 09:39:41;;;;;;;0.22;0.22;;;;;;;0.36;60.34;97992.25;5023742;28;20054;-76
2023/03/06 09:42:14;;;;;;;0.20;0.20;;;;;;;0.34;59.86;97995.22;5020754;28;20067;-75
2023/03/06 09:44:42;;;;;;;0.20;0.20;;;;;;;0.22;59.15;97995.31;5019127;28;20140;-76
2023/03/06 09:47:39;;;;;;;0.20;0.20;;;;;;;0.30;59.86;98002.13;5018640;28;20177;-75
2023/03/06 09:50:15;;;;;;;0.20;0.20;;;;;;;0.27;60.83;98002.66;5022475;28;20053;-75
2023/03/06 09:52:51;;;;;;;0.20;0.20;;;;;;;0.08;61.79;97992.22;5021174;28;20073;-74
2023/03/06 09:55:20;;;;;;;0.15;0.15;;;;;;;0.14;62.01;98006.53;5016748;28;20406;-75
2023/03/06 09:57:53;;;;;;;0.20;0.20;;;;;;;-0.03;62.70;98006.59;5023550;28;20053;-75
2023/03/06 10:00:25;;;;;;;0.20;0.20;;;;;;;-0.10;63.18;97993.31;5022260;28;20037;-75
2023/03/06 10:02:59;;;;;;;0.20;0.20;;;;;;;-0.03;62.72;98014.63;5024249;28;20045;-76
2023/03/06 10:05:34;;;;;;;0.20;0.20;;;;;;;-0.01;61.45;98004.44;5017374;28;20123;-75
2023/03/06 10:08:05;;;;;;;0.20;0.20;;;;;;;-0.14;60.86;98005.66;5017860;28;20046;-76
2023/03/06 10:10:41;;;;;;;0.20;0.20;;;;;;;-0.02;60.80;98009.03;5017718;28;20095;-75
2023/03/06 10:13:18;;;;;;;0.20;0.20;;;;;;;0.32;60.11;98005.41;5019839;28;20041;-75
2023/03/06 10:15:47;;;;;;;0.30;0.30;;;;;;;0.50;58.42;97998.88;5021207;28;20045;-75
2023/03/06 10:18:14;;;;;;;0.20;0.20;;;;;;;0.59;57.44;98001.91;5020287;28;20455;-75
2023/03/06 10:20:48;;;;;;;0.20;0.20;;;;;;;0.64;57.45;97998.47;5000597;28;20038;-75
2023/03/06 10:23:30;;;;;;;0.20;0.20;;;;;;;0.77;55.76;97987.31;5017254;28;20061;-75
2023/03/06 10:25:59;;;;;;;0.20;0.20;;;;;;;0.74;56.26;98008.50;5007419;28;20064;-75
2023/03/06 10:28:29;;;;;;;0.30;0.30;;;;;;;0.76;56.82;98009.06;5022268;28;20054;-75
2023/03/06 10:31:02;;;;;;;0.20;0.20;;;;;;;0.62;57.11;98004.09;5023908;28;20512;-75
2023/03/06 10:33:43;;;;;;;0.20;0.20;;;;;;;0.49;56.87;98010.69;5009558;28;20060;-75
2023/03/06 10:36:13;;;;;;;0.20;0.20;;;;;;;0.05;58.62;98019.59;5019412;28;20431;-76
2023/03/06 10:38:41;;;;;;;0.20;0.20;;;;;;;-0.20;62.11;98014.72;5008469;28;20041;-76
2023/03/06 10:41:20;;;;;;;0.30;0.30;;;;;;;-0.25;64.57;97993.13;5026366;28;20096;-76
2023/03/06 10:44:17;;;;;;;0.30;0.30;;;;;;;0.19;63.77;98008.47;5024988;28;20704;-76
2023/03/06 10:46:46;;;;;;;0.30;0.30;;;;;;;0.67;61.05;98012.22;5022177;28;20140;-76
2023/03/06 10:49:28;;;;;;;0.30;0.30;;;;;;;0.97;59.02;97999.31;5020039;28;20089;-76
2023/03/06 10:51:56;;;;;;;0.30;0.30;;;;;;;1.33;57.46;98014.94;5015566;28;20046;-75
2023/03/06 10:54:23;;;;;;;0.30;0.30;;;;;;;1.42;56.72;98019.59;5006508;28;20072;-75
2023/03/06 10:56:49;;;;;;;0.50;0.50;;;;;;;1.83;54.41;98010.94;5020121;28;20047;-76
2023/03/06 10:59:17;;;;;;;0.70;0.70;;;;;;;3.31;52.35;98001.09;5023383;28;20521;-76
2023/03/06 11:01:46;;;;;;;0.47;0.30;;;;;;;3.83;49.21;98010.72;5017601;28;20393;-76
2023/03/06 11:04:24;;;;;;;0.20;0.20;;;;;;;2.71;50.47;98005.06;5023020;28;20057;-77
2023/03/06 11:07:11;;;;;;;0.20;0.20;;;;;;;1.33;52.75;98006.88;5020999;28;20053;-77
2023/03/06 11:09:37;;;;;;;0.20;0.20;;;;;;;0.72;55.65;98016.03;5024981;28;20041;-76
2023/03/06 11:12:21;;;;;;;0.20;0.20;;;;;;;0.29;56.74;98016.63;5024682;28;20128;-76
2023/03/06 11:15:08;;;;;;;0.20;0.20;;;;;;;0.05;58.24;98016.91;5020118;28;20061;-77
2023/03/06 11:17:37;;;;;;;0.20;0.20;;;;;;;0.02;59.31;98020.09;5018941;28;20128;-77
2023/03/06 11:20:14;;;;;;;0.20;0.20;;;;;;;-0.14;60.08;98024.44;5022420;28;20140;-76
2023/03/06 11:22:44;;;;;;;0.30;0.30;;;;;;;-0.22;60.52;98024.88;5021898;28;20041;-74
2023/03/06 11:25:14;;;;;;;0.20;0.20;;;;;;;-0.18;60.78;98026.00;5027104;28;20410;-76
2023/03/06 11:27:43;;;;;;;0.30;0.30;;;;;;;0.12;60.81;98030.97;5026746;28;20424;-76
2023/03/06 11:30:17;;;;;;;0.47;0.47;;;;;;;0.79;59.84;98027.41;5021947;28;20053;-76
2023/03/06 11:32:51;;;;;;;0.20;0.20;;;;;;;1.27;57.61;98014.91;5021865;28;20130;-76
2023/03/06 11:35:22;;;;;;;0.30;0.30;;;;;;;1.40;57.36;98026.28;5020539;28;20071;-76
2023/03/06 11:37:57;;;;;;;0.40;0.40;;;;;;;2.90;54.22;98012.69;5024680;28;20050;-76
2023/03/06 11:40:30;;;;;;;0.80;0.80;;;;;;;4.69;50.64;98014.44;5028182;28;20048;-75